Time;durP1;ratioP1;P1;durP2;ratioP2;P2;SDS_P1;SDS_P2;PMS_P1;PMS_P2;Temp;Humidity;BMP_temperature;BMP_pressure;BME280_temperature;BME280_humidity;BME280_pressure;Samples;Min_cycle;Max_cycle;Signal;HPM_P1;HPM_P2
2021/06/07 00:02:25;;;;;;;16.03;11.67;;;;;;;15.55;86.19;101559.93;126417;1092;62789;-78
2021/06/07 00:04:52;;;;;;;19.50;11.63;;;;;;;15.53;86.31;101563.81;126325;1093;63009;-77
2021/06/07 00:07:19;;;;;;;13.17;10.43;;;;;;;15.51;86.21;101563.98;126419;1093;63015;-78
2021/06/07 00:09:46;;;;;;;19.97;11.50;;;;;;;15.52;85.73;101565.67;126318;1093;64450;-78
2021/06/07 00:12:16;;;;;;;16.33;9.50;;;;;;;15.49;85.43;101563.34;126560;1093;62754;-79
2021/06/07 00:14:43;;;;;;;12.40;9.77;;;;;;;15.47;85.17;101568.91;126309;1093;63076;-77
2021/06/07 00:17:11;;;;;;;12.50;9.37;;;;;;;15.42;84.68;101568.61;126407;1093;62766;-79
2021/06/07 00:19:40;;;;;;;13.57;8.70;;;;;;;15.37;84.33;101567.53;126531;1093;62249;-78
2021/06/07 00:22:09;;;;;;;16.40;10.40;;;;;;;15.32;84.57;101577.93;126271;1092;63042;-78
2021/06/07 00:24:37;;;;;;;12.67;8.50;;;;;;;15.28;84.36;101569.47;126484;1093;62179;-77
2021/06/07 00:27:05;;;;;;;12.03;8.47;;;;;;;15.23;84.26;101569.17;126509;1093;63913;-79
2021/06/07 00:29:32;;;;;;;11.73;8.13;;;;;;;15.17;84.67;101569.91;126289;1093;62310;-78
2021/06/07 00:31:59;;;;;;;13.20;9.23;;;;;;;15.14;84.73;101572.96;126136;1093;62872;-77
2021/06/07 00:34:26;;;;;;;13.33;10.03;;;;;;;15.09;84.72;101570.84;126053;1093;63009;-78
2021/06/07 00:36:54;;;;;;;12.87;9.30;;;;;;;15.06;84.77;101561.33;126389;1093;62200;-78
2021/06/07 00:39:21;;;;;;;15.13;9.27;;;;;;;15.04;84.71;101562.53;127450;1093;61987;-77
2021/06/07 00:41:49;;;;;;;13.33;7.73;;;;;;;15.02;84.33;101567.23;126483;1093;63015;-79
2021/06/07 00:44:21;;;;;;;11.40;7.63;;;;;;;14.97;84.29;101573.13;126504;1093;62939;-78
2021/06/07 00:46:48;;;;;;;11.27;7.60;;;;;;;14.93;84.07;101569.16;126519;1093;62933;-78
2021/06/07 00:49:16;;;;;;;12.33;6.87;;;;;;;14.88;84.57;101568.88;126253;1092;63031;-77
2021/06/07 00:51:45;;;;;;;11.90;8.33;;;;;;;14.83;84.83;101571.25;126146;1093;62990;-78
2021/06/07 00:54:14;;;;;;;9.87;6.97;;;;;;;14.80;84.78;101566.28;126415;1093;64379;-78
2021/06/07 00:56:41;;;;;;;10.60;8.47;;;;;;;14.81;84.71;101567.93;126411;1093;62759;-78
2021/06/07 00:59:09;;;;;;;10.20;7.33;;;;;;;14.80;84.57;101569.78;126374;1093;63012;-77
2021/06/07 01:01:36;;;;;;;16.47;8.53;;;;;;;14.78;84.57;101568.30;126511;1093;62191;-77
2021/06/07 01:04:04;;;;;;;18.73;8.57;;;;;;;14.76;84.56;101573.00;126356;1093;62805;-78
2021/06/07 01:06:32;;;;;;;13.97;9.37;;;;;;;14.75;84.59;101573.99;126376;1093;63462;-78
2021/06/07 01:09:00;;;;;;;14.37;9.13;;;;;;;14.71;84.76;101568.20;126360;1093;62181;-78
2021/06/07 01:11:27;;;;;;;12.57;8.30;;;;;;;14.68;84.43;101568.55;126405;1093;62800;-78
2021/06/07 01:13:54;;;;;;;13.83;8.37;;;;;;;14.66;84.76;101568.75;126361;1093;63278;-79
2021/06/07 01:16:21;;;;;;;14.10;9.10;;;;;;;14.65;84.84;101564.41;126286;1093;62861;-79
2021/06/07 01:18:49;;;;;;;13.10;8.90;;;;;;;14.61;85.21;101565.77;126286;1093;64387;-78
2021/06/07 01:21:19;;;;;;;13.23;8.40;;;;;;;14.59;85.44;101564.30;126349;1093;63002;-79
2021/06/07 01:23:48;;;;;;;12.10;9.37;;;;;;;14.55;85.65;101568.30;126383;1093;63106;-79
2021/06/07 01:26:18;;;;;;;12.40;8.83;;;;;;;14.50;85.70;101566.18;126337;1093;62948;-78
2021/06/07 01:28:47;;;;;;;15.30;10.10;;;;;;;14.45;86.19;101564.05;126411;1093;62884;-79
2021/06/07 01:31:15;;;;;;;15.77;10.00;;;;;;;14.43;86.25;101560.73;126442;1093;62806;-78
2021/06/07 01:33:46;;;;;;;15.67;9.63;;;;;;;14.43;86.40;101559.91;126487;1093;62941;-79
2021/06/07 01:36:13;;;;;;;11.70;7.87;;;;;;;14.42;86.34;101563.57;126201;1093;62968;-78
2021/06/07 01:38:40;;;;;;;17.63;10.07;;;;;;;14.38;86.87;101562.27;126286;1093;62864;-79
2021/06/07 01:41:10;;;;;;;13.73;9.03;;;;;;;14.37;86.56;101563.29;126413;1092;62655;-78
2021/06/07 01:43:39;;;;;;;17.90;10.97;;;;;;;14.36;86.74;101564.28;126419;1092;62875;-78
2021/06/07 01:46:06;;;;;;;13.93;9.53;;;;;;;14.34;86.82;101560.95;126507;1093;62827;-77
2021/06/07 01:48:35;;;;;;;17.10;12.17;;;;;;;14.34;86.70;101566.30;126248;1092;64465;-77
2021/06/07 01:51:05;;;;;;;13.10;8.77;;;;;;;14.32;86.56;101562.97;126193;1092;63628;-78
2021/06/07 01:53:32;;;;;;;17.83;10.50;;;;;;;14.31;86.83;101558.66;128797;1093;62143;-79
2021/06/07 01:56:04;;;;;;;19.57;13.30;;;;;;;14.30;86.68;101562.32;126033;1093;62304;-78
2021/06/07 01:58:32;;;;;;;16.47;11.87;;;;;;;14.28;86.32;101563.34;126440;1092;63019;-78
2021/06/07 02:01:10;;;;;;;17.03;11.20;;;;;;;14.26;86.92;101568.03;126582;1093;62942;-78
2021/06/07 02:03:38;;;;;;;16.10;10.23;;;;;;;14.22;86.79;101563.23;126636;1093;62977;-78
2021/06/07 02:06:08;;;;;;;17.67;12.63;;;;;;;14.17;86.90;101566.41;126239;1093;63150;-79
2021/06/07 02:08:35;;;;;;;21.97;13.27;;;;;;;14.15;86.87;101559.59;126308;1093;62315;-79
2021/06/07 02:11:15;;;;;;;21.57;14.53;;;;;;;14.13;87.31;101567.80;126601;1093;62916;-79
2021/06/07 02:13:45;;;;;;;23.63;11.00;;;;;;;14.12;86.79;101557.29;126632;1093;62212;-79
2021/06/07 02:16:19;;;;;;;13.63;10.30;;;;;;;14.11;87.04;101560.95;126536;1093;62957;-79
2021/06/07 02:18:47;;;;;;;18.73;10.83;;;;;;;14.10;87.29;101568.13;126316;1093;62865;-79
2021/06/07 02:21:16;;;;;;;16.75;11.75;;;;;;;14.06;86.95;101564.98;126702;1093;63039;-79
2021/06/07 02:23:44;;;;;;;21.17;13.83;;;;;;;14.04;87.54;101574.17;126638;1093;62748;-78
2021/06/07 02:26:11;;;;;;;15.83;11.13;;;;;;;14.00;87.20;101562.19;126146;1092;62382;-78
2021/06/07 02:28:45;;;;;;;21.63;15.63;;;;;;;13.98;87.42;101567.72;126349;1092;62991;-78
2021/06/07 02:31:12;;;;;;;24.37;14.40;;;;;;;13.97;87.54;101566.05;126531;1093;62738;-79
2021/06/07 02:33:39;;;;;;;20.47;13.10;;;;;;;13.98;87.39;101572.20;126428;1093;63414;-78
2021/06/07 02:36:06;;;;;;;25.53;16.73;;;;;;;13.99;87.85;101571.21;126115;1093;62956;-79
2021/06/07 02:38:33;;;;;;;26.23;14.93;;;;;;;13.99;87.55;101565.88;126456;1093;63038;-78
2021/06/07 02:41:01;;;;;;;19.30;14.13;;;;;;;14.00;87.05;101570.19;126030;1093;62849;-78
2021/06/07 02:43:28;;;;;;;14.00;8.87;;;;;;;13.97;87.38;101560.70;126367;1093;63034;-78
2021/06/07 02:45:55;;;;;;;21.73;13.40;;;;;;;13.93;87.46;101562.06;126170;1093;63003;-78
2021/06/07 02:48:22;;;;;;;23.07;14.10;;;;;;;13.91;87.42;101561.41;126523;1093;62974;-78
2021/06/07 02:50:50;;;;;;;20.40;14.07;;;;;;;13.91;87.33;101560.59;126615;1093;63493;-78
2021/06/07 02:53:17;;;;;;;23.80;14.93;;;;;;;13.91;87.63;101566.74;126541;1093;62557;-78
2021/06/07 02:55:51;;;;;;;22.37;15.67;;;;;;;13.91;87.29;101569.41;126536;1093;63006;-78
2021/06/07 02:58:20;;;;;;;23.70;15.00;;;;;;;13.92;87.53;101573.75;126655;1092;62113;-78
2021/06/07 03:00:53;;;;;;;21.33;14.43;;;;;;;13.90;87.52;101575.77;126462;1093;62281;-78
2021/06/07 03:03:21;;;;;;;18.50;12.00;;;;;;;13.86;87.51;101575.27;126128;1092;62297;-78
2021/06/07 03:05:50;;;;;;;17.83;12.20;;;;;;;13.82;87.24;101578.47;126400;1093;64206;-78
2021/06/07 03:08:20;;;;;;;24.20;15.37;;;;;;;13.82;87.67;101573.96;126325;1092;63038;-79
2021/06/07 03:10:51;;;;;;;19.50;11.97;;;;;;;13.82;87.35;101570.47;126771;1093;64429;-80
2021/06/07 03:13:20;;;;;;;16.40;10.80;;;;;;;13.77;87.38;101571.00;126698;1093;63012;-79
2021/06/07 03:15:51;;;;;;;19.37;13.23;;;;;;;13.77;87.32;101571.00;126732;1093;62970;-80
2021/06/07 03:18:19;;;;;;;16.57;12.07;;;;;;;13.77;87.76;101570.14;126883;1093;62945;-79
2021/06/07 03:20:46;;;;;;;18.43;12.73;;;;;;;13.75;87.72;101575.67;127017;1092;62873;-80
2021/06/07 03:23:17;;;;;;;20.87;13.47;;;;;;;13.73;87.45;101574.16;126747;1092;63089;-79
2021/06/07 03:25:46;;;;;;;19.67;14.70;;;;;;;13.71;87.42;101577.03;126850;1093;63553;-79
2021/06/07 03:28:15;;;;;;;20.90;13.77;;;;;;;13.68;87.63;101577.36;126674;1092;62765;-77
2021/06/07 03:30:42;;;;;;;22.77;14.13;;;;;;;13.68;87.55;101582.69;126621;1093;63009;-78
2021/06/07 03:33:10;;;;;;;21.40;14.53;;;;;;;13.68;87.53;101577.36;126423;1093;64933;-79
2021/06/07 03:35:42;;;;;;;22.13;14.63;;;;;;;13.69;87.35;101579.03;126372;1093;63012;-78
2021/06/07 03:38:10;;;;;;;20.17;13.17;;;;;;;13.71;87.17;101577.03;126386;1093;62929;-78
2021/06/07 03:40:41;;;;;;;16.30;12.13;;;;;;;13.70;87.25;101578.02;126479;1093;62941;-78
2021/06/07 03:43:11;;;;;;;18.50;13.77;;;;;;;13.70;87.52;101569.19;126519;1092;61890;-79
2021/06/07 03:45:38;;;;;;;18.47;13.00;;;;;;;13.71;87.15;101577.03;126226;1093;63379;-78
2021/06/07 03:48:06;;;;;;;22.40;15.10;;;;;;;13.69;87.37;101573.70;126118;1093;63117;-78
2021/06/07 03:50:35;;;;;;;23.73;14.83;;;;;;;13.66;87.49;101569.55;126450;1093;62146;-79
2021/06/07 03:53:04;;;;;;;15.60;10.77;;;;;;;13.66;87.54;101571.36;126595;1092;62282;-79
2021/06/07 03:55:32;;;;;;;21.53;14.57;;;;;;;13.65;87.22;101575.88;126122;1093;63554;-78
2021/06/07 03:57:59;;;;;;;20.23;15.43;;;;;;;13.64;87.40;101570.70;126441;1093;63448;-79
2021/06/07 04:00:32;;;;;;;20.27;13.83;;;;;;;13.62;87.47;101578.05;126377;1093;64443;-79
2021/06/07 04:03:02;;;;;;;17.27;13.50;;;;;;;13.61;87.50;101581.73;126355;1093;64241;-77
2021/06/07 04:05:29;;;;;;;18.80;13.20;;;;;;;13.62;87.48;101580.71;126372;1093;62399;-77
2021/06/07 04:07:56;;;;;;;17.20;10.43;;;;;;;13.62;87.61;101572.72;126316;1093;65128;-78
2021/06/07 04:10:26;;;;;;;20.03;12.73;;;;;;;13.62;87.70;101572.72;126387;1093;63386;-77
2021/06/07 04:12:54;;;;;;;15.07;10.83;;;;;;;13.62;87.84;101578.05;126249;1093;64323;-78
2021/06/07 04:15:24;;;;;;;20.53;14.93;;;;;;;13.59;88.09;101573.90;126350;1093;62911;-78
2021/06/07 04:17:55;;;;;;;21.13;14.53;;;;;;;13.55;88.25;101577.91;126483;1093;62932;-78
2021/06/07 04:20:26;;;;;;;17.73;12.80;;;;;;;13.53;88.31;101584.42;126202;1093;62300;-76
2021/06/07 04:22:53;;;;;;;21.80;12.27;;;;;;;13.51;88.61;101581.10;126495;1093;63012;-77
2021/06/07 04:25:22;;;;;;;20.27;13.57;;;;;;;13.52;88.30;101577.45;126389;1092;62958;-78
2021/06/07 04:27:51;;;;;;;20.40;14.50;;;;;;;13.56;88.21;101579.59;126470;1093;63005;-78
2021/06/07 04:30:20;;;;;;;19.90;12.87;;;;;;;13.60;88.15;101585.39;126418;1093;63535;-79
2021/06/07 04:32:49;;;;;;;28.70;15.43;;;;;;;13.66;88.08;101582.03;126475;1093;62098;-79
2021/06/07 04:35:17;;;;;;;29.27;15.73;;;;;;;13.71;87.83;101582.36;126422;1092;62392;-78
2021/06/07 04:37:51;;;;;;;27.70;15.83;;;;;;;13.77;87.74;101583.48;126325;1093;62747;-79
2021/06/07 04:40:20;;;;;;;;;;;;;;;13.80;87.18;101580.48;126457;1093;64906;-78
2021/06/07 04:42:54;;;;;;;26.47;14.47;;;;;;;13.85;87.28;101573.59;126907;1092;64217;-78
2021/06/07 04:45:31;;;;;;;29.57;15.93;;;;;;;13.96;87.24;101580.41;126450;1093;62974;-78
2021/06/07 04:48:01;;;;;;;30.80;13.47;;;;;;;14.04;86.81;101576.84;126549;1093;63555;-78
2021/06/07 04:50:30;;;;;;;27.33;17.63;;;;;;;14.14;87.37;101564.10;126550;1093;62980;-79
2021/06/07 04:52:59;;;;;;;26.33;15.27;;;;;;;14.27;86.67;101577.68;126478;1093;62999;-78
2021/06/07 04:55:35;;;;;;;25.80;16.13;;;;;;;14.36;86.25;101569.62;126439;1093;62294;-77
2021/06/07 04:58:27;;;;;;;;;;;;;;;14.49;86.39;101567.17;126583;1093;62896;-79
2021/06/07 05:00:58;;;;;;;20.87;12.63;;;;;;;14.57;84.96;101572.48;126370;1093;63028;-77
2021/06/07 05:03:26;;;;;;;23.40;13.83;;;;;;;14.63;84.61;101561.08;126300;1093;62813;-77
2021/06/07 05:06:09;;;;;;;37.25;16.35;;;;;;;14.75;84.47;101565.98;126650;1093;64156;-76
2021/06/07 05:08:48;;;;;;;21.40;10.63;;;;;;;14.84;83.78;101568.41;126414;1093;64249;-75
2021/06/07 05:11:29;;;;;;;25.73;14.05;;;;;;;14.97;84.70;101564.28;126465;1093;62530;-76
2021/06/07 05:13:59;;;;;;;30.90;16.77;;;;;;;15.11;83.45;101562.63;126810;1093;64175;-75
2021/06/07 05:16:33;;;;;;;19.20;10.95;;;;;;;15.16;82.48;101576.28;126580;1093;64272;-77
2021/06/07 05:19:01;;;;;;;30.03;16.57;;;;;;;15.14;81.65;101578.30;126866;1093;64119;-78
2021/06/07 05:21:34;;;;;;;32.70;14.67;;;;;;;15.12;81.51;101574.98;126468;1093;64181;-80
2021/06/07 05:24:02;;;;;;;29.37;15.53;;;;;;;15.11;81.70;101573.31;126533;1092;64080;-75
2021/06/07 05:26:29;;;;;;;31.13;16.00;;;;;;;15.16;82.20;101570.94;126372;1093;63005;-77
2021/06/07 05:28:56;;;;;;;28.40;16.50;;;;;;;15.13;81.33;101574.81;126328;1092;62997;-76
2021/06/07 05:31:25;;;;;;;28.03;16.53;;;;;;;15.02;80.95;101580.59;126073;1092;62225;-77
2021/06/07 05:33:53;;;;;;;42.00;20.13;;;;;;;14.94;80.63;101573.50;126264;1093;63012;-76
2021/06/07 05:36:20;;;;;;;34.80;17.23;;;;;;;14.92;81.01;101580.87;126260;1093;63029;-77
2021/06/07 05:38:47;;;;;;;27.53;15.07;;;;;;;14.92;80.91;101580.87;126318;1093;62871;-77
2021/06/07 05:41:14;;;;;;;29.77;15.07;;;;;;;14.90;81.09;101588.23;126276;1092;63079;-77
2021/06/07 05:43:41;;;;;;;33.57;15.37;;;;;;;14.86;80.96;101592.27;126341;1093;62156;-77
2021/06/07 05:46:08;;;;;;;19.23;12.80;;;;;;;14.84;80.97;101586.28;126360;1093;62967;-78
2021/06/07 05:48:35;;;;;;;23.27;14.90;;;;;;;14.88;81.26;101595.59;126286;1093;62188;-76
2021/06/07 05:51:02;;;;;;;22.33;13.03;;;;;;;14.91;81.21;101587.20;126287;1093;63183;-77
2021/06/07 05:53:29;;;;;;;19.67;12.40;;;;;;;14.92;81.62;101596.89;126278;1093;62872;-77
2021/06/07 05:55:57;;;;;;;22.90;14.40;;;;;;;14.96;81.40;101592.00;126299;1093;62938;-77
2021/06/07 05:58:24;;;;;;;18.47;12.73;;;;;;;14.96;81.68;101600.87;126251;1093;63012;-76
2021/06/07 06:00:52;;;;;;;19.13;13.70;;;;;;;14.98;81.69;101593.50;127849;1093;62827;-76
2021/06/07 06:03:20;;;;;;;18.63;12.43;;;;;;;15.02;81.11;101592.09;128285;1092;62757;-76
2021/06/07 06:05:47;;;;;;;23.27;14.03;;;;;;;15.11;81.55;101589.34;128070;1093;62762;-77
2021/06/07 06:08:14;;;;;;;26.73;18.80;;;;;;;15.14;80.36;101599.69;128161;1092;62176;-77
2021/06/07 06:10:41;;;;;;;23.30;14.90;;;;;;;15.11;79.98;101590.20;127457;1092;62399;-76
2021/06/07 06:13:28;;;;;;;22.97;13.93;;;;;;;15.17;80.43;101593.96;126766;1093;64220;-76
2021/06/07 06:15:55;;;;;;;28.10;18.23;;;;;;;15.20;80.22;101594.44;126086;1092;63009;-79
2021/06/07 06:18:22;;;;;;;18.10;11.27;;;;;;;15.24;79.71;101594.91;126402;1093;62894;-78
2021/06/07 06:20:50;;;;;;;26.07;17.37;;;;;;;15.29;79.84;101589.83;126271;1093;64263;-80
2021/06/07 06:23:17;;;;;;;31.63;21.77;;;;;;;15.32;80.21;101592.12;126582;1092;63022;-79
2021/06/07 06:25:44;;;;;;;27.43;19.77;;;;;;;15.40;79.97;101594.70;126295;1092;62242;-77
2021/06/07 06:28:12;;;;;;;20.47;13.23;;;;;;;15.41;79.51;101591.03;126375;1092;62932;-77
2021/06/07 06:30:40;;;;;;;25.43;17.83;;;;;;;15.41;80.32;101593.70;126371;1092;63466;-78
2021/06/07 06:33:08;;;;;;;34.20;23.33;;;;;;;15.42;79.87;101595.35;126388;1093;63022;-78
2021/06/07 06:35:35;;;;;;;28.67;19.40;;;;;;;15.41;79.94;101601.73;126349;1093;62194;-78
2021/06/07 06:38:02;;;;;;;21.97;15.47;;;;;;;15.38;79.98;101596.73;126396;1093;62948;-78
2021/06/07 06:40:32;;;;;;;26.05;17.05;;;;;;;15.42;80.13;101607.90;126395;1093;62894;-78
2021/06/07 06:43:01;;;;;;;24.47;18.40;;;;;;;15.43;80.32;101609.58;126954;1093;62358;-78
2021/06/07 06:45:30;;;;;;;27.27;18.47;;;;;;;15.40;80.48;101610.75;127255;1093;62104;-76
2021/06/07 06:47:58;;;;;;;24.17;15.40;;;;;;;15.37;80.34;101610.30;127752;1093;62579;-75
2021/06/07 06:50:35;;;;;;;24.57;17.10;;;;;;;15.32;80.20;101610.83;127856;1092;62196;-75
2021/06/07 06:53:13;;;;;;;22.63;15.73;;;;;;;15.29;80.43;101614.70;127789;1093;62826;-75
2021/06/07 06:55:41;;;;;;;20.87;14.73;;;;;;;15.28;80.14;101620.27;127791;1093;62416;-75
2021/06/07 06:58:08;;;;;;;26.20;18.60;;;;;;;15.26;80.34;101619.61;127933;1093;62938;-76
2021/06/07 07:00:36;;;;;;;27.33;19.13;;;;;;;15.27;80.03;101615.91;128083;1092;63205;-75
2021/06/07 07:03:05;;;;;;;19.80;13.83;;;;;;;15.31;79.85;101627.91;127822;1093;63072;-76
2021/06/07 07:05:33;;;;;;;26.53;17.20;;;;;;;15.31;79.31;101625.23;128146;1093;62804;-76
2021/06/07 07:08:01;;;;;;;26.63;16.17;;;;;;;15.35;79.63;101621.17;127394;1093;63483;-77
2021/06/07 07:10:28;;;;;;;21.07;14.63;;;;;;;15.41;79.80;101622.30;126138;1093;62901;-75
2021/06/07 07:12:55;;;;;;;22.00;14.33;;;;;;;15.49;79.60;101623.03;126241;1093;62294;-76
2021/06/07 07:15:23;;;;;;;20.20;13.67;;;;;;;15.48;79.71;101618.68;126742;1093;62087;-76
2021/06/07 07:17:50;;;;;;;20.97;14.63;;;;;;;15.57;79.96;101621.27;126623;1093;63127;-76
2021/06/07 07:20:17;;;;;;;14.90;10.47;;;;;;;15.63;79.60;101631.22;126625;1093;62941;-76
2021/06/07 07:22:45;;;;;;;13.53;10.13;;;;;;;15.59;79.17;101629.94;127981;1092;62932;-75
2021/06/07 07:25:13;;;;;;;21.70;13.40;;;;;;;15.55;79.28;101626.79;128021;1093;62675;-76
2021/06/07 07:27:40;;;;;;;16.43;11.67;;;;;;;15.51;80.23;101617.47;127625;1092;63115;-76
2021/06/07 07:30:14;;;;;;;19.20;13.90;;;;;;;15.50;79.97;101630.02;127955;1093;62373;-77
2021/06/07 07:32:42;;;;;;;18.33;12.27;;;;;;;15.43;81.05;101626.44;127593;1093;62446;-76
2021/06/07 07:35:11;;;;;;;20.13;14.97;;;;;;;15.42;81.12;101630.11;127958;1092;62910;-76
2021/06/07 07:37:48;;;;;;;13.50;10.40;;;;;;;15.44;81.12;101627.27;127681;1093;62440;-76
2021/06/07 07:40:46;;;;;;;17.53;13.30;;;;;;;15.52;81.18;101634.38;127681;1092;63041;-76
2021/06/07 07:43:16;;;;;;;18.27;10.90;;;;;;;15.66;80.41;101630.84;127838;1093;62438;-76
2021/06/07 07:45:43;;;;;;;17.30;12.77;;;;;;;15.78;80.19;101637.41;128013;1093;62165;-76
2021/06/07 07:48:10;;;;;;;18.03;12.80;;;;;;;15.88;79.98;101639.81;127626;1092;62223;-76
2021/06/07 07:50:38;;;;;;;21.50;16.40;;;;;;;16.02;80.17;101636.30;127943;1092;62190;-76
2021/06/07 07:53:05;;;;;;;16.70;11.37;;;;;;;16.11;78.91;101639.69;127667;1093;62269;-76
2021/06/07 07:55:34;;;;;;;26.67;15.17;;;;;;;16.18;78.33;101640.58;127686;1093;61969;-77
2021/06/07 07:58:06;;;;;;;23.47;15.07;;;;;;;16.18;78.23;101637.08;128029;1093;62034;-76
2021/06/07 08:00:34;;;;;;;16.27;12.20;;;;;;;16.10;77.92;101632.66;128096;1093;62855;-75
2021/06/07 08:03:02;;;;;;;21.80;15.20;;;;;;;16.07;78.63;101639.22;127796;1092;62134;-76
2021/06/07 08:05:31;;;;;;;21.57;14.63;;;;;;;16.03;78.34;101637.94;127370;1093;63031;-78
2021/06/07 08:07:58;;;;;;;21.03;15.53;;;;;;;15.94;78.54;101644.42;126222;1093;63241;-77
2021/06/07 08:10:27;;;;;;;14.67;10.30;;;;;;;15.92;78.90;101645.60;126447;1093;62354;-77
2021/06/07 08:13:01;;;;;;;18.73;14.00;;;;;;;15.96;79.07;101641.53;126536;1092;62952;-78
2021/06/07 08:15:30;;;;;;;17.07;11.60;;;;;;;15.97;78.35;101648.56;126539;1093;63132;-78
2021/06/07 08:17:57;;;;;;;16.63;11.93;;;;;;;15.98;78.59;101639.50;126520;1093;64269;-78
2021/06/07 08:20:25;;;;;;;25.53;16.60;;;;;;;16.01;78.78;101641.83;126407;1093;63040;-77
2021/06/07 08:22:55;;;;;;;22.97;15.40;;;;;;;16.06;78.60;101642.90;126405;1093;63163;-77
2021/06/07 08:25:24;;;;;;;29.33;17.10;;;;;;;16.09;78.43;101644.39;126191;1092;62920;-77
2021/06/07 08:27:52;;;;;;;17.07;12.13;;;;;;;16.04;77.90;101638.76;126573;1092;62865;-76
2021/06/07 08:30:20;;;;;;;21.57;15.07;;;;;;;16.02;78.11;101640.79;126490;1093;62970;-76
2021/06/07 08:32:49;;;;;;;24.90;16.50;;;;;;;15.98;78.00;101644.86;126564;1093;62229;-77
2021/06/07 08:35:17;;;;;;;21.63;16.60;;;;;;;15.94;78.10;101641.75;126604;1093;62872;-76
2021/06/07 08:37:46;;;;;;;23.03;17.17;;;;;;;15.97;78.43;101640.53;126354;1093;63009;-77
2021/06/07 08:40:15;;;;;;;24.50;16.97;;;;;;;16.06;77.53;101637.55;126558;1092;62970;-77
2021/06/07 08:42:43;;;;;;;26.17;17.03;;;;;;;16.16;77.60;101647.14;126467;1093;63006;-76
2021/06/07 08:45:32;;;;;;;21.47;16.37;;;;;;;16.25;77.24;101644.14;126526;1093;62154;-74
2021/06/07 08:47:59;;;;;;;24.13;16.80;;;;;;;16.31;76.58;101646.06;126390;1093;64006;-75
2021/06/07 08:50:29;;;;;;;25.10;16.63;;;;;;;16.42;76.89;101643.91;126436;1093;63565;-72
2021/06/07 08:52:57;;;;;;;26.97;18.53;;;;;;;16.53;76.18;101648.76;126622;1093;64142;-75
2021/06/07 08:55:28;;;;;;;20.60;13.97;;;;;;;16.63;75.92;101643.92;126268;1093;62420;-78
2021/06/07 08:58:00;;;;;;;18.83;13.10;;;;;;;16.71;75.42;101642.97;126743;1093;63157;-79
2021/06/07 09:00:31;;;;;;;23.73;16.03;;;;;;;16.82;75.63;101638.97;127006;1093;62820;-79
2021/06/07 09:03:13;;;;;;;22.53;15.80;;;;;;;16.95;74.96;101631.03;127174;1093;62894;-80
2021/06/07 09:05:44;;;;;;;15.97;11.93;;;;;;;17.06;74.22;101640.39;127055;1093;62149;-78
2021/06/07 09:08:14;;;;;;;19.57;15.70;;;;;;;17.05;73.61;101636.89;126687;1093;62823;-78
2021/06/07 09:10:51;;;;;;;31.30;19.50;;;;;;;17.21;73.92;101629.56;126588;1092;62386;-80
2021/06/07 09:13:21;;;;;;;25.30;18.67;;;;;;;17.40;72.73;101628.86;126778;1092;63043;-77
2021/06/07 09:15:52;;;;;;;17.33;13.70;;;;;;;17.52;71.24;101638.02;126690;1092;63040;-77
2021/06/07 09:18:36;;;;;;;21.97;16.37;;;;;;;17.71;71.83;101636.47;126485;1092;63006;-77
2021/06/07 09:21:11;;;;;;;17.73;11.83;;;;;;;17.92;70.08;101632.88;126315;1093;62951;-77
2021/06/07 09:23:47;;;;;;;22.23;17.93;;;;;;;18.15;70.81;101631.72;126631;1093;63814;-78
2021/06/07 09:26:32;;;;;;;22.20;16.77;;;;;;;18.38;69.30;101630.52;126722;1093;62322;-77
2021/06/07 09:29:06;;;;;;;17.37;13.93;;;;;;;18.64;68.88;101625.19;126263;1093;62703;-79
2021/06/07 09:31:39;;;;;;;21.03;16.23;;;;;;;18.83;66.64;101622.73;126251;1093;62153;-79
2021/06/07 09:34:08;;;;;;;19.93;15.50;;;;;;;19.04;66.68;101619.84;127090;1093;63006;-79
2021/06/07 09:36:44;;;;;;;17.83;14.07;;;;;;;19.13;65.54;101623.96;126889;1093;62927;-79
2021/06/07 09:39:20;;;;;;;19.53;14.25;;;;;;;19.18;65.48;101626.02;126318;1092;62974;-78
2021/06/07 09:42:03;;;;;;;20.93;17.63;;;;;;;19.24;65.78;101627.05;126541;1093;64163;-79
2021/06/07 09:44:36;;;;;;;19.47;16.90;;;;;;;19.41;65.36;101625.56;126329;1093;63012;-77
2021/06/07 09:47:26;;;;;;;25.87;17.60;;;;;;;19.54;65.56;101628.21;126639;1093;62339;-77
2021/06/07 09:49:59;;;;;;;19.37;14.83;;;;;;;19.60;64.26;101623.03;126647;1093;62945;-77
2021/06/07 09:52:55;;;;;;;21.90;16.03;;;;;;;19.64;63.96;101630.47;127202;1093;62396;-77
2021/06/07 09:55:26;;;;;;;19.17;13.70;;;;;;;19.67;64.29;101623.83;126482;1093;63583;-77
2021/06/07 09:58:00;;;;;;;14.67;12.33;;;;;;;19.82;63.81;101621.72;126912;1093;63771;-79
2021/06/07 10:00:39;;;;;;;;;;;;;;;20.00;64.33;101628.27;126771;1093;63012;-79
2021/06/07 10:03:22;;;;;;;17.33;13.20;;;;;;;20.02;63.54;101631.57;126750;1093;63325;-77
2021/06/07 10:05:58;;;;;;;18.03;13.20;;;;;;;20.03;63.35;101630.55;126740;1093;62958;-77
2021/06/07 10:08:39;;;;;;;15.50;11.60;;;;;;;19.84;62.56;101634.98;126663;1093;62367;-76
2021/06/07 10:11:27;;;;;;;19.07;13.90;;;;;;;19.82;63.61;101631.67;126479;1093;63402;-76
2021/06/07 10:14:11;;;;;;;14.03;10.53;;;;;;;19.80;63.59;101631.88;126837;1092;62835;-76
2021/06/07 10:17:02;;;;;;;17.40;12.80;;;;;;;19.65;63.84;101639.36;126608;1093;62929;-78
2021/06/07 10:19:41;;;;;;;18.03;14.13;;;;;;;19.48;64.38;101630.92;126448;1092;62880;-78
2021/06/07 10:22:08;;;;;;;14.47;11.47;;;;;;;19.39;64.56;101633.02;126228;1093;63009;-77
2021/06/07 10:24:35;;;;;;;18.70;12.33;;;;;;;19.36;64.85;101625.38;126528;1093;62961;-77
2021/06/07 10:27:03;;;;;;;15.27;10.60;;;;;;;19.34;65.43;101622.89;126202;1093;62834;-77
2021/06/07 10:29:32;;;;;;;16.77;12.77;;;;;;;19.42;66.29;101629.08;126523;1093;62497;-76
2021/06/07 10:32:07;;;;;;;19.97;14.00;;;;;;;19.59;65.65;101624.06;126052;1093;62850;-77
2021/06/07 10:34:50;;;;;;;20.53;15.93;;;;;;;19.71;64.73;101625.09;126512;1093;62319;-80
2021/06/07 10:37:18;;;;;;;14.67;10.43;;;;;;;19.68;64.96;101620.11;126249;1093;62945;-74
2021/06/07 10:39:46;;;;;;;18.87;14.40;;;;;;;19.72;64.54;101627.58;126682;1093;62296;-78
2021/06/07 10:42:29;;;;;;;23.23;16.33;;;;;;;19.88;65.49;101630.82;126540;1093;64373;-74
2021/06/07 10:45:06;;;;;;;24.13;16.13;;;;;;;20.02;64.60;101631.57;126595;1093;62660;-74
2021/06/07 10:47:45;;;;;;;24.40;16.90;;;;;;;19.92;64.10;101630.17;126792;1093;62974;-75
2021/06/07 10:50:17;;;;;;;23.93;16.93;;;;;;;19.91;64.71;101625.84;126655;1093;64475;-74
2021/06/07 10:52:51;;;;;;;26.00;17.53;;;;;;;19.90;64.49;101629.56;126221;1093;63111;-74
2021/06/07 10:55:24;;;;;;;19.45;12.90;;;;;;;19.90;65.03;101624.17;126390;1093;63274;-74
2021/06/07 10:57:53;;;;;;;24.07;16.83;;;;;;;19.93;64.92;101622.91;126239;1093;63019;-74
2021/06/07 11:00:40;;;;;;;21.67;16.27;;;;;;;19.88;64.11;101626.26;126558;1093;62152;-74
2021/06/07 11:03:22;;;;;;;23.30;15.97;;;;;;;19.90;64.57;101629.56;127840;1093;62129;-74
2021/06/07 11:05:53;;;;;;;23.37;16.73;;;;;;;19.94;64.72;101628.09;127379;1093;62693;-74
2021/06/07 11:08:29;;;;;;;22.07;14.60;;;;;;;20.08;65.49;101619.94;126590;1092;62856;-73
2021/06/07 11:11:16;;;;;;;24.90;16.80;;;;;;;20.29;65.25;101619.60;126623;1093;62961;-75
2021/06/07 11:13:53;;;;;;;22.53;16.63;;;;;;;20.46;64.21;101627.17;126600;1092;62958;-74
2021/06/07 11:16:32;;;;;;;18.93;13.10;;;;;;;20.62;63.29;101625.86;126707;1093;62963;-74
2021/06/07 11:19:06;;;;;;;24.27;17.37;;;;;;;20.54;62.44;101625.03;126334;1093;62966;-75
2021/06/07 11:21:55;;;;;;;23.60;16.80;;;;;;;20.54;62.89;101627.73;126691;1093;62967;-74